sensor_id;sensor_type;location;lat;lon;timestamp;P1;durP1;ratioP1;P2;durP2;ratioP2
20101;SDS011;10210;52.284;9.892;2023-09-18T00:01:55;8.03;;;3.67;;
20101;SDS011;10210;52.284;9.892;2023-09-18T00:04:20;8.37;;;3.67;;
20101;SDS011;10210;52.284;9.892;2023-09-18T00:06:46;8.93;;;3.63;;
20101;SDS011;10210;52.284;9.892;2023-09-18T00:09:12;8.20;;;3.70;;
20101;SDS011;10210;52.284;9.892;2023-09-18T00:11:39;9.47;;;3.60;;
20101;SDS011;10210;52.284;9.892;2023-09-18T00:14:05;7.00;;;3.37;;
20101;SDS011;10210;52.284;9.892;2023-09-18T00:16:32;9.33;;;3.93;;
20101;SDS011;10210;52.284;9.892;2023-09-18T00:18:58;9.00;;;4.07;;
20101;SDS011;10210;52.284;9.892;2023-09-18T00:21:24;9.17;;;4.07;;
20101;SDS011;10210;52.284;9.892;2023-09-18T00:23:50;9.70;;;4.13;;
20101;SDS011;10210;52.284;9.892;2023-09-18T00:26:17;10.43;;;4.20;;
20101;SDS011;10210;52.284;9.892;2023-09-18T00:28:42;9.40;;;4.10;;
20101;SDS011;10210;52.284;9.892;2023-09-18T00:31:08;8.97;;;3.93;;
20101;SDS011;10210;52.284;9.892;2023-09-18T00:33:34;10.10;;;3.80;;
20101;SDS011;10210;52.284;9.892;2023-09-18T00:36:00;8.87;;;3.90;;
20101;SDS011;10210;52.284;9.892;2023-09-18T00:38:27;11.37;;;3.97;;
20101;SDS011;10210;52.284;9.892;2023-09-18T00:40:54;10.93;;;3.90;;
20101;SDS011;10210;52.284;9.892;2023-09-18T00:43:19;8.07;;;3.70;;
20101;SDS011;10210;52.284;9.892;2023-09-18T00:45:46;10.20;;;4.30;;
20101;SDS011;10210;52.284;9.892;2023-09-18T00:48:14;10.70;;;4.30;;
20101;SDS011;10210;52.284;9.892;2023-09-18T00:50:41;9.00;;;4.07;;
20101;SDS011;10210;52.284;9.892;2023-09-18T00:53:11;9.27;;;4.20;;
20101;SDS011;10210;52.284;9.892;2023-09-18T00:55:45;8.13;;;3.70;;
20101;SDS011;10210;52.284;9.892;2023-09-18T00:58:11;9.93;;;3.77;;
20101;SDS011;10210;52.284;9.892;2023-09-18T01:00:38;10.93;;;4.37;;
20101;SDS011;10210;52.284;9.892;2023-09-18T01:03:05;9.37;;;4.33;;
20101;SDS011;10210;52.284;9.892;2023-09-18T01:05:34;9.03;;;4.23;;
20101;SDS011;10210;52.284;9.892;2023-09-18T01:08:01;10.50;;;4.10;;
20101;SDS011;10210;52.284;9.892;2023-09-18T01:10:32;9.07;;;4.33;;
20101;SDS011;10210;52.284;9.892;2023-09-18T01:13:11;10.00;;;4.30;;
20101;SDS011;10210;52.284;9.892;2023-09-18T01:15:43;10.63;;;4.30;;
20101;SDS011;10210;52.284;9.892;2023-09-18T01:18:24;9.10;;;4.33;;
20101;SDS011;10210;52.284;9.892;2023-09-18T01:20:50;11.13;;;4.37;;
20101;SDS011;10210;52.284;9.892;2023-09-18T01:23:16;9.87;;;4.53;;
20101;SDS011;10210;52.284;9.892;2023-09-18T01:25:41;11.03;;;4.50;;
20101;SDS011;10210;52.284;9.892;2023-09-18T01:28:07;9.10;;;4.10;;
20101;SDS011;10210;52.284;9.892;2023-09-18T01:30:33;11.03;;;4.50;;
20101;SDS011;10210;52.284;9.892;2023-09-18T01:32:59;9.67;;;4.37;;
20101;SDS011;10210;52.284;9.892;2023-09-18T01:35:29;9.13;;;4.27;;
20101;SDS011;10210;52.284;9.892;2023-09-18T01:37:57;10.33;;;4.70;;
20101;SDS011;10210;52.284;9.892;2023-09-18T01:40:25;10.47;;;4.50;;
20101;SDS011;10210;52.284;9.892;2023-09-18T01:42:51;12.70;;;4.50;;
20101;SDS011;10210;52.284;9.892;2023-09-18T01:45:18;9.47;;;4.20;;
20101;SDS011;10210;52.284;9.892;2023-09-18T01:47:44;9.53;;;4.40;;
20101;SDS011;10210;52.284;9.892;2023-09-18T01:50:11;10.37;;;4.40;;
20101;SDS011;10210;52.284;9.892;2023-09-18T01:52:38;11.00;;;4.30;;
20101;SDS011;10210;52.284;9.892;2023-09-18T01:55:03;11.23;;;4.30;;
20101;SDS011;10210;52.284;9.892;2023-09-18T01:57:30;9.23;;;4.17;;
20101;SDS011;10210;52.284;9.892;2023-09-18T01:59:56;9.67;;;3.90;;
20101;SDS011;10210;52.284;9.892;2023-09-18T02:02:21;12.30;;;4.20;;
20101;SDS011;10210;52.284;9.892;2023-09-18T02:04:47;12.03;;;4.60;;
20101;SDS011;10210;52.284;9.892;2023-09-18T02:07:13;9.33;;;3.93;;
20101;SDS011;10210;52.284;9.892;2023-09-18T02:09:39;11.37;;;4.43;;
20101;SDS011;10210;52.284;9.892;2023-09-18T02:12:04;9.87;;;3.80;;
20101;SDS011;10210;52.284;9.892;2023-09-18T02:14:31;10.53;;;4.30;;
20101;SDS011;10210;52.284;9.892;2023-09-18T02:16:57;10.80;;;4.10;;
20101;SDS011;10210;52.284;9.892;2023-09-18T02:19:23;9.73;;;4.33;;
20101;SDS011;10210;52.284;9.892;2023-09-18T02:21:48;10.77;;;4.17;;
20101;SDS011;10210;52.284;9.892;2023-09-18T02:24:15;10.00;;;4.47;;
20101;SDS011;10210;52.284;9.892;2023-09-18T02:26:41;9.47;;;4.50;;
20101;SDS011;10210;52.284;9.892;2023-09-18T02:29:07;10.00;;;4.23;;
20101;SDS011;10210;52.284;9.892;2023-09-18T02:31:36;13.90;;;4.37;;
20101;SDS011;10210;52.284;9.892;2023-09-18T02:34:03;10.70;;;4.67;;
20101;SDS011;10210;52.284;9.892;2023-09-18T02:36:28;10.07;;;4.40;;
20101;SDS011;10210;52.284;9.892;2023-09-18T02:38:54;9.67;;;4.27;;
20101;SDS011;10210;52.284;9.892;2023-09-18T02:41:20;10.03;;;4.30;;
20101;SDS011;10210;52.284;9.892;2023-09-18T02:43:46;11.50;;;4.20;;
20101;SDS011;10210;52.284;9.892;2023-09-18T02:46:11;9.37;;;4.20;;
20101;SDS011;10210;52.284;9.892;2023-09-18T02:48:37;9.50;;;4.33;;
20101;SDS011;10210;52.284;9.892;2023-09-18T02:51:03;10.47;;;4.27;;
20101;SDS011;10210;52.284;9.892;2023-09-18T02:53:29;11.40;;;4.30;;
20101;SDS011;10210;52.284;9.892;2023-09-18T02:55:55;11.27;;;4.30;;
20101;SDS011;10210;52.284;9.892;2023-09-18T02:58:23;10.17;;;4.00;;
20101;SDS011;10210;52.284;9.892;2023-09-18T03:00:51;8.20;;;3.80;;
20101;SDS011;10210;52.284;9.892;2023-09-18T03:03:22;10.23;;;4.10;;
20101;SDS011;10210;52.284;9.892;2023-09-18T03:05:48;10.40;;;4.50;;
20101;SDS011;10210;52.284;9.892;2023-09-18T03:08:14;9.60;;;4.17;;
20101;SDS011;10210;52.284;9.892;2023-09-18T03:10:41;10.87;;;4.37;;
20101;SDS011;10210;52.284;9.892;2023-09-18T03:13:09;10.00;;;4.13;;
20101;SDS011;10210;52.284;9.892;2023-09-18T03:15:39;9.67;;;4.47;;
20101;SDS011;10210;52.284;9.892;2023-09-18T03:18:05;10.97;;;4.60;;
20101;SDS011;10210;52.284;9.892;2023-09-18T03:20:32;9.20;;;3.87;;
20101;SDS011;10210;52.284;9.892;2023-09-18T03:22:58;10.03;;;4.10;;
20101;SDS011;10210;52.284;9.892;2023-09-18T03:25:26;11.27;;;4.37;;
20101;SDS011;10210;52.284;9.892;2023-09-18T03:27:53;10.10;;;4.20;;
20101;SDS011;10210;52.284;9.892;2023-09-18T03:30:21;10.70;;;4.40;;
20101;SDS011;10210;52.284;9.892;2023-09-18T03:32:48;10.90;;;4.57;;
20101;SDS011;10210;52.284;9.892;2023-09-18T03:35:14;10.90;;;4.70;;
20101;SDS011;10210;52.284;9.892;2023-09-18T03:37:44;10.07;;;4.00;;
20101;SDS011;10210;52.284;9.892;2023-09-18T03:40:11;12.40;;;4.77;;
20101;SDS011;10210;52.284;9.892;2023-09-18T03:42:37;10.17;;;4.53;;
20101;SDS011;10210;52.284;9.892;2023-09-18T03:45:04;11.40;;;4.27;;
20101;SDS011;10210;52.284;9.892;2023-09-18T03:47:34;10.13;;;4.53;;
20101;SDS011;10210;52.284;9.892;2023-09-18T03:50:04;10.43;;;4.60;;
20101;SDS011;10210;52.284;9.892;2023-09-18T03:52:34;10.57;;;4.67;;
20101;SDS011;10210;52.284;9.892;2023-09-18T03:55:01;10.80;;;4.97;;
20101;SDS011;10210;52.284;9.892;2023-09-18T03:57:27;13.10;;;4.73;;
20101;SDS011;10210;52.284;9.892;2023-09-18T03:59:54;13.33;;;4.80;;
20101;SDS011;10210;52.284;9.892;2023-09-18T04:02:21;12.80;;;4.90;;
20101;SDS011;10210;52.284;9.892;2023-09-18T04:04:50;10.27;;;4.43;;
20101;SDS011;10210;52.284;9.892;2023-09-18T04:07:16;11.03;;;4.80;;
20101;SDS011;10210;52.284;9.892;2023-09-18T04:09:42;11.67;;;4.43;;
20101;SDS011;10210;52.284;9.892;2023-09-18T04:12:08;11.20;;;4.50;;
20101;SDS011;10210;52.284;9.892;2023-09-18T04:14:34;11.37;;;4.67;;
20101;SDS011;10210;52.284;9.892;2023-09-18T04:17:01;10.57;;;4.70;;
20101;SDS011;10210;52.284;9.892;2023-09-18T04:19:27;9.53;;;4.47;;
20101;SDS011;10210;52.284;9.892;2023-09-18T04:21:54;9.57;;;4.50;;
20101;SDS011;10210;52.284;9.892;2023-09-18T04:24:20;11.73;;;4.40;;
20101;SDS011;10210;52.284;9.892;2023-09-18T04:26:46;10.93;;;4.40;;
20101;SDS011;10210;52.284;9.892;2023-09-18T04:29:15;9.17;;;4.10;;
20101;SDS011;10210;52.284;9.892;2023-09-18T04:31:42;11.53;;;4.33;;
20101;SDS011;10210;52.284;9.892;2023-09-18T04:34:07;10.80;;;4.80;;
20101;SDS011;10210;52.284;9.892;2023-09-18T04:36:33;11.30;;;4.90;;
20101;SDS011;10210;52.284;9.892;2023-09-18T04:38:59;10.20;;;4.50;;
20101;SDS011;10210;52.284;9.892;2023-09-18T04:41:24;9.10;;;4.20;;
20101;SDS011;10210;52.284;9.892;2023-09-18T04:43:50;10.50;;;4.97;;
20101;SDS011;10210;52.284;9.892;2023-09-18T04:46:16;10.93;;;4.30;;
20101;SDS011;10210;52.284;9.892;2023-09-18T04:48:42;11.40;;;4.40;;
20101;SDS011;10210;52.284;9.892;2023-09-18T04:51:07;11.10;;;4.47;;
20101;SDS011;10210;52.284;9.892;2023-09-18T04:53:33;10.13;;;4.70;;
20101;SDS011;10210;52.284;9.892;2023-09-18T04:55:59;11.60;;;5.03;;
20101;SDS011;10210;52.284;9.892;2023-09-18T04:58:25;10.57;;;4.73;;
20101;SDS011;10210;52.284;9.892;2023-09-18T05:00:58;12.30;;;5.00;;
20101;SDS011;10210;52.284;9.892;2023-09-18T05:03:25;10.87;;;4.60;;
20101;SDS011;10210;52.284;9.892;2023-09-18T05:05:54;11.37;;;4.57;;
20101;SDS011;10210;52.284;9.892;2023-09-18T05:08:20;10.63;;;4.60;;
20101;SDS011;10210;52.284;9.892;2023-09-18T05:10:45;10.70;;;4.50;;
20101;SDS011;10210;52.284;9.892;2023-09-18T05:13:12;9.87;;;4.17;;
20101;SDS011;10210;52.284;9.892;2023-09-18T05:15:38;9.83;;;4.30;;
20101;SDS011;10210;52.284;9.892;2023-09-18T05:18:04;10.57;;;4.57;;
20101;SDS011;10210;52.284;9.892;2023-09-18T05:20:30;10.03;;;4.73;;
20101;SDS011;10210;52.284;9.892;2023-09-18T05:22:56;10.93;;;4.20;;
20101;SDS011;10210;52.284;9.892;2023-09-18T05:25:25;10.07;;;4.43;;
20101;SDS011;10210;52.284;9.892;2023-09-18T05:27:57;11.80;;;4.73;;
20101;SDS011;10210;52.284;9.892;2023-09-18T05:30:29;11.73;;;5.37;;
20101;SDS011;10210;52.284;9.892;2023-09-18T05:32:59;13.47;;;5.13;;
20101;SDS011;10210;52.284;9.892;2023-09-18T05:35:33;9.97;;;4.57;;
20101;SDS011;10210;52.284;9.892;2023-09-18T05:38:10;10.47;;;4.80;;
20101;SDS011;10210;52.284;9.892;2023-09-18T05:40:38;10.50;;;4.53;;
20101;SDS011;10210;52.284;9.892;2023-09-18T05:43:08;11.03;;;4.77;;
20101;SDS011;10210;52.284;9.892;2023-09-18T05:45:35;13.03;;;4.90;;
20101;SDS011;10210;52.284;9.892;2023-09-18T05:48:00;9.27;;;4.30;;
20101;SDS011;10210;52.284;9.892;2023-09-18T05:50:29;11.37;;;4.60;;
20101;SDS011;10210;52.284;9.892;2023-09-18T05:52:57;12.07;;;4.70;;
20101;SDS011;10210;52.284;9.892;2023-09-18T05:55:29;11.00;;;4.93;;
20101;SDS011;10210;52.284;9.892;2023-09-18T05:57:56;11.43;;;5.10;;
20101;SDS011;10210;52.284;9.892;2023-09-18T06:00:22;9.87;;;4.50;;
20101;SDS011;10210;52.284;9.892;2023-09-18T06:02:48;10.93;;;5.00;;
20101;SDS011;10210;52.284;9.892;2023-09-18T06:05:16;10.33;;;4.67;;
20101;SDS011;10210;52.284;9.892;2023-09-18T06:07:46;10.27;;;4.70;;
20101;SDS011;10210;52.284;9.892;2023-09-18T06:10:13;10.33;;;4.70;;
20101;SDS011;10210;52.284;9.892;2023-09-18T06:12:39;11.30;;;4.50;;
20101;SDS011;10210;52.284;9.892;2023-09-18T06:15:08;28.93;;;6.63;;
20101;SDS011;10210;52.284;9.892;2023-09-18T06:17:44;13.60;;;4.97;;
20101;SDS011;10210;52.284;9.892;2023-09-18T06:20:10;22.13;;;6.13;;
20101;SDS011;10210;52.284;9.892;2023-09-18T06:22:41;14.30;;;5.17;;
20101;SDS011;10210;52.284;9.892;2023-09-18T06:25:06;18.37;;;5.63;;
20101;SDS011;10210;52.284;9.892;2023-09-18T06:27:37;17.27;;;5.40;;
20101;SDS011;10210;52.284;9.892;2023-09-18T06:30:03;13.00;;;5.20;;
20101;SDS011;10210;52.284;9.892;2023-09-18T06:32:30;10.57;;;4.97;;
20101;SDS011;10210;52.284;9.892;2023-09-18T06:34:56;11.20;;;4.77;;
20101;SDS011;10210;52.284;9.892;2023-09-18T06:37:23;11.93;;;5.07;;
20101;SDS011;10210;52.284;9.892;2023-09-18T06:39:49;12.80;;;5.70;;
20101;SDS011;10210;52.284;9.892;2023-09-18T06:42:15;13.90;;;6.90;;
20101;SDS011;10210;52.284;9.892;2023-09-18T06:44:41;12.20;;;5.20;;
20101;SDS011;10210;52.284;9.892;2023-09-18T06:47:07;10.67;;;4.70;;
20101;SDS011;10210;52.284;9.892;2023-09-18T06:49:32;9.27;;;4.40;;
20101;SDS011;10210;52.284;9.892;2023-09-18T06:51:59;10.87;;;5.03;;
20101;SDS011;10210;52.284;9.892;2023-09-18T06:54:25;12.23;;;6.07;;
20101;SDS011;10210;52.284;9.892;2023-09-18T06:56:50;11.30;;;4.90;;
20101;SDS011;10210;52.284;9.892;2023-09-18T06:59:16;9.77;;;4.47;;
20101;SDS011;10210;52.284;9.892;2023-09-18T07:01:42;10.13;;;4.33;;
20101;SDS011;10210;52.284;9.892;2023-09-18T07:04:07;9.37;;;4.23;;
20101;SDS011;10210;52.284;9.892;2023-09-18T07:06:34;10.53;;;4.93;;
20101;SDS011;10210;52.284;9.892;2023-09-18T07:08:59;9.10;;;4.00;;
20101;SDS011;10210;52.284;9.892;2023-09-18T07:11:25;11.43;;;4.87;;
20101;SDS011;10210;52.284;9.892;2023-09-18T07:13:51;11.50;;;4.90;;
20101;SDS011;10210;52.284;9.892;2023-09-18T07:16:17;12.73;;;4.70;;
20101;SDS011;10210;52.284;9.892;2023-09-18T07:18:42;9.77;;;4.40;;
20101;SDS011;10210;52.284;9.892;2023-09-18T07:21:08;10.60;;;4.60;;
20101;SDS011;10210;52.284;9.892;2023-09-18T07:23:34;12.03;;;5.07;;
20101;SDS011;10210;52.284;9.892;2023-09-18T07:26:02;11.10;;;4.63;;
20101;SDS011;10210;52.284;9.892;2023-09-18T07:28:28;13.17;;;6.27;;
20101;SDS011;10210;52.284;9.892;2023-09-18T07:30:54;14.50;;;7.50;;
20101;SDS011;10210;52.284;9.892;2023-09-18T07:33:20;11.70;;;5.30;;
20101;SDS011;10210;52.284;9.892;2023-09-18T07:35:49;9.27;;;4.40;;
20101;SDS011;10210;52.284;9.892;2023-09-18T07:38:18;11.93;;;4.50;;
20101;SDS011;10210;52.284;9.892;2023-09-18T07:40:44;10.63;;;4.57;;
20101;SDS011;10210;52.284;9.892;2023-09-18T07:43:12;12.47;;;4.30;;
20101;SDS011;10210;52.284;9.892;2023-09-18T07:45:38;10.40;;;4.10;;
20101;SDS011;10210;52.284;9.892;2023-09-18T07:48:07;9.97;;;4.40;;
20101;SDS011;10210;52.284;9.892;2023-09-18T07:50:34;9.20;;;4.17;;
20101;SDS011;10210;52.284;9.892;2023-09-18T07:53:00;15.73;;;5.03;;
20101;SDS011;10210;52.284;9.892;2023-09-18T07:55:27;9.67;;;4.37;;
20101;SDS011;10210;52.284;9.892;2023-09-18T07:57:55;8.53;;;3.73;;
20101;SDS011;10210;52.284;9.892;2023-09-18T08:00:21;9.57;;;3.80;;
20101;SDS011;10210;52.284;9.892;2023-09-18T08:02:47;10.17;;;4.00;;
20101;SDS011;10210;52.284;9.892;2023-09-18T08:05:19;11.67;;;5.07;;
20101;SDS011;10210;52.284;9.892;2023-09-18T08:07:45;10.07;;;4.10;;
20101;SDS011;10210;52.284;9.892;2023-09-18T08:10:12;10.40;;;4.57;;
20101;SDS011;10210;52.284;9.892;2023-09-18T08:12:38;12.07;;;4.80;;
20101;SDS011;10210;52.284;9.892;2023-09-18T08:15:04;11.70;;;3.63;;
20101;SDS011;10210;52.284;9.892;2023-09-18T08:17:31;10.60;;;4.00;;
20101;SDS011;10210;52.284;9.892;2023-09-18T08:19:57;13.50;;;6.23;;
20101;SDS011;10210;52.284;9.892;2023-09-18T08:22:23;12.50;;;5.50;;
20101;SDS011;10210;52.284;9.892;2023-09-18T08:24:49;11.17;;;4.10;;
20101;SDS011;10210;52.284;9.892;2023-09-18T08:27:17;12.97;;;4.03;;
20101;SDS011;10210;52.284;9.892;2023-09-18T08:29:45;13.07;;;3.90;;
20101;SDS011;10210;52.284;9.892;2023-09-18T08:32:11;10.83;;;3.93;;
20101;SDS011;10210;52.284;9.892;2023-09-18T08:34:37;12.40;;;3.87;;
20101;SDS011;10210;52.284;9.892;2023-09-18T08:37:03;8.87;;;3.57;;
20101;SDS011;10210;52.284;9.892;2023-09-18T08:39:29;10.30;;;3.80;;
20101;SDS011;10210;52.284;9.892;2023-09-18T08:41:58;11.03;;;3.63;;
20101;SDS011;10210;52.284;9.892;2023-09-18T08:44:30;11.47;;;4.53;;
20101;SDS011;10210;52.284;9.892;2023-09-18T08:46:56;13.07;;;4.13;;
20101;SDS011;10210;52.284;9.892;2023-09-18T08:49:23;11.77;;;4.07;;
20101;SDS011;10210;52.284;9.892;2023-09-18T08:51:50;14.33;;;7.07;;
20101;SDS011;10210;52.284;9.892;2023-09-18T08:54:21;12.47;;;4.10;;
20101;SDS011;10210;52.284;9.892;2023-09-18T08:56:51;12.40;;;4.00;;
20101;SDS011;10210;52.284;9.892;2023-09-18T08:59:17;13.90;;;3.53;;
20101;SDS011;10210;52.284;9.892;2023-09-18T09:01:47;10.03;;;3.70;;
20101;SDS011;10210;52.284;9.892;2023-09-18T09:04:13;10.93;;;3.63;;
20101;SDS011;10210;52.284;9.892;2023-09-18T09:06:39;12.53;;;3.87;;
20101;SDS011;10210;52.284;9.892;2023-09-18T09:09:05;13.23;;;3.60;;
20101;SDS011;10210;52.284;9.892;2023-09-18T09:11:32;12.77;;;3.80;;
20101;SDS011;10210;52.284;9.892;2023-09-18T09:14:12;9.57;;;3.23;;
20101;SDS011;10210;52.284;9.892;2023-09-18T09:16:54;11.80;;;3.40;;
20101;SDS011;10210;52.284;9.892;2023-09-18T09:19:28;10.90;;;3.47;;
20101;SDS011;10210;52.284;9.892;2023-09-18T09:21:58;13.53;;;3.40;;
20101;SDS011;10210;52.284;9.892;2023-09-18T09:24:41;11.30;;;3.10;;
20101;SDS011;10210;52.284;9.892;2023-09-18T09:27:09;9.87;;;2.93;;
20101;SDS011;10210;52.284;9.892;2023-09-18T09:29:36;11.17;;;3.17;;
20101;SDS011;10210;52.284;9.892;2023-09-18T09:32:20;13.00;;;3.20;;
20101;SDS011;10210;52.284;9.892;2023-09-18T09:34:46;8.97;;;3.30;;
20101;SDS011;10210;52.284;9.892;2023-09-18T09:37:12;13.73;;;3.20;;
20101;SDS011;10210;52.284;9.892;2023-09-18T09:39:48;12.90;;;3.23;;
20101;SDS011;10210;52.284;9.892;2023-09-18T09:42:18;16.10;;;3.20;;
20101;SDS011;10210;52.284;9.892;2023-09-18T09:45:03;11.57;;;3.23;;
20101;SDS011;10210;52.284;9.892;2023-09-18T09:47:37;11.00;;;3.20;;
20101;SDS011;10210;52.284;9.892;2023-09-18T09:50:05;10.17;;;2.97;;
20101;SDS011;10210;52.284;9.892;2023-09-18T09:52:50;9.93;;;2.40;;
20101;SDS011;10210;52.284;9.892;2023-09-18T09:55:20;11.03;;;3.10;;
20101;SDS011;10210;52.284;9.892;2023-09-18T09:57:55;11.07;;;2.57;;
20101;SDS011;10210;52.284;9.892;2023-09-18T10:03:09;13.03;;;3.17;;
20101;SDS011;10210;52.284;9.892;2023-09-18T10:05:38;9.43;;;2.83;;
20101;SDS011;10210;52.284;9.892;2023-09-18T10:10:36;11.20;;;2.90;;
20101;SDS011;10210;52.284;9.892;2023-09-18T10:13:10;9.80;;;2.50;;
20101;SDS011;10210;52.284;9.892;2023-09-18T10:15:42;8.43;;;2.63;;
20101;SDS011;10210;52.284;9.892;2023-09-18T10:18:45;9.87;;;2.50;;
20101;SDS011;10210;52.284;9.892;2023-09-18T10:21:22;9.43;;;2.60;;
20101;SDS011;10210;52.284;9.892;2023-09-18T10:24:16;11.27;;;2.60;;
20101;SDS011;10210;52.284;9.892;2023-09-18T10:26:58;17.97;;;3.10;;
20101;SDS011;10210;52.284;9.892;2023-09-18T10:29:28;10.93;;;2.60;;
20101;SDS011;10210;52.284;9.892;2023-09-18T10:31:58;8.80;;;2.60;;
20101;SDS011;10210;52.284;9.892;2023-09-18T10:34:24;10.80;;;2.63;;
20101;SDS011;10210;52.284;9.892;2023-09-18T10:36:53;11.57;;;2.67;;
20101;SDS011;10210;52.284;9.892;2023-09-18T10:39:20;10.80;;;2.53;;
20101;SDS011;10210;52.284;9.892;2023-09-18T10:41:53;8.90;;;2.63;;
20101;SDS011;10210;52.284;9.892;2023-09-18T10:44:21;14.40;;;2.87;;
20101;SDS011;10210;52.284;9.892;2023-09-18T10:46:48;9.83;;;2.63;;
20101;SDS011;10210;52.284;9.892;2023-09-18T10:49:20;8.37;;;2.53;;
20101;SDS011;10210;52.284;9.892;2023-09-18T10:51:47;8.90;;;2.47;;
20101;SDS011;10210;52.284;9.892;2023-09-18T10:54:20;9.43;;;2.87;;
20101;SDS011;10210;52.284;9.892;2023-09-18T10:56:49;11.57;;;2.60;;
20101;SDS011;10210;52.284;9.892;2023-09-18T10:59:16;9.83;;;2.70;;
20101;SDS011;10210;52.284;9.892;2023-09-18T11:01:43;9.67;;;2.47;;
20101;SDS011;10210;52.284;9.892;2023-09-18T11:04:09;7.77;;;2.40;;
20101;SDS011;10210;52.284;9.892;2023-09-18T11:09:20;11.47;;;2.40;;
20101;SDS011;10210;52.284;9.892;2023-09-18T11:12:05;12.50;;;3.03;;
20101;SDS011;10210;52.284;9.892;2023-09-18T11:14:41;10.57;;;2.70;;
20101;SDS011;10210;52.284;9.892;2023-09-18T11:22:47;13.80;;;2.60;;
20101;SDS011;10210;52.284;9.892;2023-09-18T11:25:30;11.10;;;2.67;;
20101;SDS011;10210;52.284;9.892;2023-09-18T11:27:59;10.40;;;2.97;;
20101;SDS011;10210;52.284;9.892;2023-09-18T11:30:27;10.03;;;2.30;;
20101;SDS011;10210;52.284;9.892;2023-09-18T11:32:55;12.43;;;2.30;;
20101;SDS011;10210;52.284;9.892;2023-09-18T11:35:21;9.80;;;2.47;;
20101;SDS011;10210;52.284;9.892;2023-09-18T11:37:50;10.77;;;2.43;;
20101;SDS011;10210;52.284;9.892;2023-09-18T11:40:36;8.67;;;2.50;;
20101;SDS011;10210;52.284;9.892;2023-09-18T11:45:53;9.47;;;2.40;;
20101;SDS011;10210;52.284;9.892;2023-09-18T11:48:21;7.67;;;2.30;;
20101;SDS011;10210;52.284;9.892;2023-09-18T11:50:57;10.53;;;2.50;;
20101;SDS011;10210;52.284;9.892;2023-09-18T11:53:26;11.60;;;2.47;;
20101;SDS011;10210;52.284;9.892;2023-09-18T11:55:54;9.47;;;2.47;;
20101;SDS011;10210;52.284;9.892;2023-09-18T11:58:20;7.73;;;2.60;;
20101;SDS011;10210;52.284;9.892;2023-09-18T12:00:48;8.47;;;2.43;;
20101;SDS011;10210;52.284;9.892;2023-09-18T12:03:19;9.93;;;2.30;;
20101;SDS011;10210;52.284;9.892;2023-09-18T12:05:58;6.87;;;2.03;;
20101;SDS011;10210;52.284;9.892;2023-09-18T12:08:30;9.83;;;2.60;;
20101;SDS011;10210;52.284;9.892;2023-09-18T12:10:57;9.57;;;2.40;;
20101;SDS011;10210;52.284;9.892;2023-09-18T12:13:27;11.17;;;2.17;;
20101;SDS011;10210;52.284;9.892;2023-09-18T12:15:56;8.80;;;2.57;;
20101;SDS011;10210;52.284;9.892;2023-09-18T12:18:26;10.37;;;2.37;;
20101;SDS011;10210;52.284;9.892;2023-09-18T12:20:56;7.20;;;2.07;;
20101;SDS011;10210;52.284;9.892;2023-09-18T12:23:24;7.17;;;2.30;;
20101;SDS011;10210;52.284;9.892;2023-09-18T12:25:50;9.03;;;2.27;;
20101;SDS011;10210;52.284;9.892;2023-09-18T12:28:24;15.10;;;2.50;;
20101;SDS011;10210;52.284;9.892;2023-09-18T12:30:54;8.97;;;2.30;;
20101;SDS011;10210;52.284;9.892;2023-09-18T12:33:24;7.83;;;2.30;;
20101;SDS011;10210;52.284;9.892;2023-09-18T12:35:51;10.10;;;2.40;;
20101;SDS011;10210;52.284;9.892;2023-09-18T12:38:17;11.27;;;2.60;;
20101;SDS011;10210;52.284;9.892;2023-09-18T12:40:51;8.67;;;2.20;;
20101;SDS011;10210;52.284;9.892;2023-09-18T12:43:20;10.40;;;2.40;;
20101;SDS011;10210;52.284;9.892;2023-09-18T12:45:48;10.03;;;2.43;;
20101;SDS011;10210;52.284;9.892;2023-09-18T12:48:17;9.63;;;2.27;;
20101;SDS011;10210;52.284;9.892;2023-09-18T12:50:42;10.13;;;2.47;;
20101;SDS011;10210;52.284;9.892;2023-09-18T12:53:09;7.97;;;2.10;;
20101;SDS011;10210;52.284;9.892;2023-09-18T12:55:39;6.70;;;2.27;;
20101;SDS011;10210;52.284;9.892;2023-09-18T12:58:10;7.10;;;2.10;;
20101;SDS011;10210;52.284;9.892;2023-09-18T13:00:36;7.30;;;2.20;;
20101;SDS011;10210;52.284;9.892;2023-09-18T13:03:11;6.17;;;1.83;;
20101;SDS011;10210;52.284;9.892;2023-09-18T13:05:39;9.33;;;2.27;;
20101;SDS011;10210;52.284;9.892;2023-09-18T13:08:05;7.13;;;2.10;;
20101;SDS011;10210;52.284;9.892;2023-09-18T13:13:29;8.03;;;2.20;;
20101;SDS011;10210;52.284;9.892;2023-09-18T13:15:58;7.13;;;2.10;;
20101;SDS011;10210;52.284;9.892;2023-09-18T13:18:25;7.10;;;2.07;;
20101;SDS011;10210;52.284;9.892;2023-09-18T13:20:52;8.00;;;2.20;;
20101;SDS011;10210;52.284;9.892;2023-09-18T13:23:19;10.70;;;2.33;;
20101;SDS011;10210;52.284;9.892;2023-09-18T13:25:45;9.07;;;2.20;;
20101;SDS011;10210;52.284;9.892;2023-09-18T13:28:12;7.83;;;2.10;;
20101;SDS011;10210;52.284;9.892;2023-09-18T13:30:40;8.30;;;2.00;;
20101;SDS011;10210;52.284;9.892;2023-09-18T13:33:11;8.17;;;2.30;;
20101;SDS011;10210;52.284;9.892;2023-09-18T13:35:41;9.63;;;1.97;;
20101;SDS011;10210;52.284;9.892;2023-09-18T13:38:10;7.63;;;2.20;;
20101;SDS011;10210;52.284;9.892;2023-09-18T13:40:37;6.10;;;2.07;;
20101;SDS011;10210;52.284;9.892;2023-09-18T13:43:04;8.10;;;2.03;;
20101;SDS011;10210;52.284;9.892;2023-09-18T13:45:34;6.57;;;1.97;;
20101;SDS011;10210;52.284;9.892;2023-09-18T13:48:02;6.87;;;2.33;;
20101;SDS011;10210;52.284;9.892;2023-09-18T13:50:29;8.50;;;2.13;;
20101;SDS011;10210;52.284;9.892;2023-09-18T13:52:56;9.57;;;2.33;;
20101;SDS011;10210;52.284;9.892;2023-09-18T13:55:22;8.87;;;2.10;;
20101;SDS011;10210;52.284;9.892;2023-09-18T13:57:48;9.13;;;2.07;;
20101;SDS011;10210;52.284;9.892;2023-09-18T14:00:14;9.53;;;2.10;;
20101;SDS011;10210;52.284;9.892;2023-09-18T14:02:40;8.60;;;1.90;;
20101;SDS011;10210;52.284;9.892;2023-09-18T14:05:06;5.33;;;1.93;;
20101;SDS011;10210;52.284;9.892;2023-09-18T14:07:34;10.70;;;2.27;;
20101;SDS011;10210;52.284;9.892;2023-09-18T14:10:01;7.20;;;1.93;;
20101;SDS011;10210;52.284;9.892;2023-09-18T14:12:30;9.57;;;2.20;;
20101;SDS011;10210;52.284;9.892;2023-09-18T14:14:56;6.53;;;1.90;;
20101;SDS011;10210;52.284;9.892;2023-09-18T14:17:22;7.77;;;1.90;;
20101;SDS011;10210;52.284;9.892;2023-09-18T14:19:48;8.70;;;2.00;;
20101;SDS011;10210;52.284;9.892;2023-09-18T14:22:14;7.93;;;1.90;;
20101;SDS011;10210;52.284;9.892;2023-09-18T14:24:40;5.73;;;2.00;;
20101;SDS011;10210;52.284;9.892;2023-09-18T14:27:06;5.83;;;2.03;;
20101;SDS011;10210;52.284;9.892;2023-09-18T14:29:32;6.37;;;1.90;;
20101;SDS011;10210;52.284;9.892;2023-09-18T14:32:01;9.20;;;1.93;;
20101;SDS011;10210;52.284;9.892;2023-09-18T14:34:32;7.93;;;2.10;;
20101;SDS011;10210;52.284;9.892;2023-09-18T14:37:00;4.63;;;1.70;;
20101;SDS011;10210;52.284;9.892;2023-09-18T14:39:32;7.20;;;2.00;;
20101;SDS011;10210;52.284;9.892;2023-09-18T14:41:59;7.30;;;1.90;;
20101;SDS011;10210;52.284;9.892;2023-09-18T14:44:25;6.57;;;1.87;;
20101;SDS011;10210;52.284;9.892;2023-09-18T14:46:52;7.60;;;1.77;;
20101;SDS011;10210;52.284;9.892;2023-09-18T14:49:19;6.80;;;1.70;;
20101;SDS011;10210;52.284;9.892;2023-09-18T14:51:44;6.50;;;1.93;;
20101;SDS011;10210;52.284;9.892;2023-09-18T14:54:11;11.40;;;1.83;;
20101;SDS011;10210;52.284;9.892;2023-09-18T14:56:37;7.30;;;1.80;;
20101;SDS011;10210;52.284;9.892;2023-09-18T14:59:03;6.20;;;1.83;;
20101;SDS011;10210;52.284;9.892;2023-09-18T15:01:32;6.57;;;1.90;;
20101;SDS011;10210;52.284;9.892;2023-09-18T15:03:59;6.60;;;1.77;;
20101;SDS011;10210;52.284;9.892;2023-09-18T15:06:24;6.30;;;1.80;;